sensor_id;sensor_type;location;lat;lon;timestamp;temperature;humidity
61253;DHT22;47127;47.516;8.596;2024-02-23T00:00:08;7.60;99.90
61253;DHT22;47127;47.516;8.596;2024-02-23T00:02:37;7.60;99.90
61253;DHT22;47127;47.516;8.596;2024-02-23T00:05:03;7.60;99.90
61253;DHT22;47127;47.516;8.596;2024-02-23T00:07:28;7.60;99.90
61253;DHT22;47127;47.516;8.596;2024-02-23T00:09:54;7.70;99.90
61253;DHT22;47127;47.516;8.596;2024-02-23T00:12:19;7.70;99.90
61253;DHT22;47127;47.516;8.596;2024-02-23T00:14:45;7.80;99.90
61253;DHT22;47127;47.516;8.596;2024-02-23T00:17:10;7.80;99.90
61253;DHT22;47127;47.516;8.596;2024-02-23T00:19:37;7.80;99.90
61253;DHT22;47127;47.516;8.596;2024-02-23T00:22:03;7.80;99.90
61253;DHT22;47127;47.516;8.596;2024-02-23T00:24:29;8.00;99.90
61253;DHT22;47127;47.516;8.596;2024-02-23T00:26:54;8.00;99.90
61253;DHT22;47127;47.516;8.596;2024-02-23T00:29:20;7.90;99.90
61253;DHT22;47127;47.516;8.596;2024-02-23T00:31:47;7.90;99.90
61253;DHT22;47127;47.516;8.596;2024-02-23T00:34:12;7.90;99.90
61253;DHT22;47127;47.516;8.596;2024-02-23T00:36:42;7.80;99.90
61253;DHT22;47127;47.516;8.596;2024-02-23T00:39:08;7.80;99.90
61253;DHT22;47127;47.516;8.596;2024-02-23T00:41:34;7.90;99.90
61253;DHT22;47127;47.516;8.596;2024-02-23T00:44:01;7.90;99.90
61253;DHT22;47127;47.516;8.596;2024-02-23T00:46:26;7.80;99.90
61253;DHT22;47127;47.516;8.596;2024-02-23T00:48:52;7.80;99.90
61253;DHT22;47127;47.516;8.596;2024-02-23T00:51:17;7.80;99.90
61253;DHT22;47127;47.516;8.596;2024-02-23T00:53:43;7.70;99.90
61253;DHT22;47127;47.516;8.596;2024-02-23T00:56:08;7.70;99.90
61253;DHT22;47127;47.516;8.596;2024-02-23T00:58:34;7.70;99.90
61253;DHT22;47127;47.516;8.596;2024-02-23T01:01:00;7.70;99.90
61253;DHT22;47127;47.516;8.596;2024-02-23T01:03:26;7.70;99.90
61253;DHT22;47127;47.516;8.596;2024-02-23T01:05:51;7.60;99.90
61253;DHT22;47127;47.516;8.596;2024-02-23T01:08:17;7.50;99.90
61253;DHT22;47127;47.516;8.596;2024-02-23T01:10:42;7.60;99.90
61253;DHT22;47127;47.516;8.596;2024-02-23T01:13:08;7.60;99.90
61253;DHT22;47127;47.516;8.596;2024-02-23T01:15:34;7.60;99.90
61253;DHT22;47127;47.516;8.596;2024-02-23T01:17:59;7.50;99.90
61253;DHT22;47127;47.516;8.596;2024-02-23T01:20:26;6.70;99.90
61253;DHT22;47127;47.516;8.596;2024-02-23T01:22:52;6.40;99.90
61253;DHT22;47127;47.516;8.596;2024-02-23T01:25:17;5.80;99.90
61253;DHT22;47127;47.516;8.596;2024-02-23T01:27:43;5.80;99.90
61253;DHT22;47127;47.516;8.596;2024-02-23T01:30:11;5.70;99.90
61253;DHT22;47127;47.516;8.596;2024-02-23T01:32:37;5.70;99.90
61253;DHT22;47127;47.516;8.596;2024-02-23T01:35:05;5.50;99.90
61253;DHT22;47127;47.516;8.596;2024-02-23T01:37:31;5.60;99.90
61253;DHT22;47127;47.516;8.596;2024-02-23T01:39:56;5.50;99.90
61253;DHT22;47127;47.516;8.596;2024-02-23T01:42:22;5.50;99.90
61253;DHT22;47127;47.516;8.596;2024-02-23T01:44:49;5.50;99.90
61253;DHT22;47127;47.516;8.596;2024-02-23T01:47:15;5.50;99.90
61253;DHT22;47127;47.516;8.596;2024-02-23T01:49:41;5.60;99.90
61253;DHT22;47127;47.516;8.596;2024-02-23T01:52:07;5.70;99.90
61253;DHT22;47127;47.516;8.596;2024-02-23T01:54:33;5.70;99.90
61253;DHT22;47127;47.516;8.596;2024-02-23T01:57:00;5.70;99.90
61253;DHT22;47127;47.516;8.596;2024-02-23T01:59:26;5.70;99.90
61253;DHT22;47127;47.516;8.596;2024-02-23T02:01:52;5.60;99.90
61253;DHT22;47127;47.516;8.596;2024-02-23T02:04:18;5.70;99.90
61253;DHT22;47127;47.516;8.596;2024-02-23T02:06:45;5.70;99.90
61253;DHT22;47127;47.516;8.596;2024-02-23T02:09:11;5.80;99.90
61253;DHT22;47127;47.516;8.596;2024-02-23T02:11:46;5.70;99.90
61253;DHT22;47127;47.516;8.596;2024-02-23T02:14:12;5.80;99.90
61253;DHT22;47127;47.516;8.596;2024-02-23T02:16:38;5.90;99.90
61253;DHT22;47127;47.516;8.596;2024-02-23T02:19:04;5.90;99.90
61253;DHT22;47127;47.516;8.596;2024-02-23T02:21:34;5.90;99.90
61253;DHT22;47127;47.516;8.596;2024-02-23T02:24:00;6.00;99.90
61253;DHT22;47127;47.516;8.596;2024-02-23T02:26:26;5.90;99.90
61253;DHT22;47127;47.516;8.596;2024-02-23T02:28:51;5.90;99.90
61253;DHT22;47127;47.516;8.596;2024-02-23T02:31:18;5.90;99.90
61253;DHT22;47127;47.516;8.596;2024-02-23T02:33:44;5.80;99.90
61253;DHT22;47127;47.516;8.596;2024-02-23T02:36:09;5.90;99.90
61253;DHT22;47127;47.516;8.596;2024-02-23T02:38:35;5.90;99.90
61253;DHT22;47127;47.516;8.596;2024-02-23T02:41:01;5.90;99.90
61253;DHT22;47127;47.516;8.596;2024-02-23T02:43:27;5.90;99.90
61253;DHT22;47127;47.516;8.596;2024-02-23T02:45:52;5.90;99.90
61253;DHT22;47127;47.516;8.596;2024-02-23T02:48:18;5.90;99.90
61253;DHT22;47127;47.516;8.596;2024-02-23T02:50:43;5.90;99.90
61253;DHT22;47127;47.516;8.596;2024-02-23T02:53:10;6.00;99.90
61253;DHT22;47127;47.516;8.596;2024-02-23T02:55:36;5.90;99.90
61253;DHT22;47127;47.516;8.596;2024-02-23T02:58:02;5.90;99.90
61253;DHT22;47127;47.516;8.596;2024-02-23T03:00:28;5.90;99.90
61253;DHT22;47127;47.516;8.596;2024-02-23T03:02:53;5.90;99.90
61253;DHT22;47127;47.516;8.596;2024-02-23T03:05:19;5.90;99.90
61253;DHT22;47127;47.516;8.596;2024-02-23T03:07:44;5.90;99.90
61253;DHT22;47127;47.516;8.596;2024-02-23T03:10:10;5.90;99.90
61253;DHT22;47127;47.516;8.596;2024-02-23T03:12:36;5.90;99.90
61253;DHT22;47127;47.516;8.596;2024-02-23T03:15:02;5.90;99.90
61253;DHT22;47127;47.516;8.596;2024-02-23T03:17:28;6.00;99.90
61253;DHT22;47127;47.516;8.596;2024-02-23T03:19:54;6.10;99.90
61253;DHT22;47127;47.516;8.596;2024-02-23T03:22:20;6.10;99.90
61253;DHT22;47127;47.516;8.596;2024-02-23T03:24:45;6.10;99.90
61253;DHT22;47127;47.516;8.596;2024-02-23T03:27:11;6.00;99.90
61253;DHT22;47127;47.516;8.596;2024-02-23T03:29:38;6.00;99.90
61253;DHT22;47127;47.516;8.596;2024-02-23T03:32:04;6.00;99.90
61253;DHT22;47127;47.516;8.596;2024-02-23T03:34:30;6.00;99.90
61253;DHT22;47127;47.516;8.596;2024-02-23T03:36:55;6.00;99.90
61253;DHT22;47127;47.516;8.596;2024-02-23T03:39:21;6.00;99.90
61253;DHT22;47127;47.516;8.596;2024-02-23T03:41:46;6.00;99.90
61253;DHT22;47127;47.516;8.596;2024-02-23T03:44:12;6.00;99.90
61253;DHT22;47127;47.516;8.596;2024-02-23T03:46:37;5.90;99.90
61253;DHT22;47127;47.516;8.596;2024-02-23T03:49:03;5.90;99.90
61253;DHT22;47127;47.516;8.596;2024-02-23T03:51:28;5.80;99.90
61253;DHT22;47127;47.516;8.596;2024-02-23T03:53:54;5.70;99.90
61253;DHT22;47127;47.516;8.596;2024-02-23T03:56:20;5.70;99.90
61253;DHT22;47127;47.516;8.596;2024-02-23T03:58:45;5.80;99.90
61253;DHT22;47127;47.516;8.596;2024-02-23T04:01:11;5.80;99.90
61253;DHT22;47127;47.516;8.596;2024-02-23T04:03:36;5.80;99.90
61253;DHT22;47127;47.516;8.596;2024-02-23T04:06:03;5.90;99.90
61253;DHT22;47127;47.516;8.596;2024-02-23T04:08:29;5.90;99.90
61253;DHT22;47127;47.516;8.596;2024-02-23T04:10:55;6.00;99.90
61253;DHT22;47127;47.516;8.596;2024-02-23T04:13:22;6.10;99.90
61253;DHT22;47127;47.516;8.596;2024-02-23T04:15:48;6.10;99.90
61253;DHT22;47127;47.516;8.596;2024-02-23T04:18:13;6.20;99.90
61253;DHT22;47127;47.516;8.596;2024-02-23T04:20:39;6.30;99.90
61253;DHT22;47127;47.516;8.596;2024-02-23T04:23:04;6.30;99.90
61253;DHT22;47127;47.516;8.596;2024-02-23T04:25:30;6.30;99.90
61253;DHT22;47127;47.516;8.596;2024-02-23T04:27:56;6.40;99.90
61253;DHT22;47127;47.516;8.596;2024-02-23T04:30:21;6.40;99.90
61253;DHT22;47127;47.516;8.596;2024-02-23T04:32:47;6.40;99.90
61253;DHT22;47127;47.516;8.596;2024-02-23T04:35:13;6.40;99.90
61253;DHT22;47127;47.516;8.596;2024-02-23T04:37:43;6.50;99.90
61253;DHT22;47127;47.516;8.596;2024-02-23T04:40:10;6.50;99.90
61253;DHT22;47127;47.516;8.596;2024-02-23T04:42:36;6.60;99.90
61253;DHT22;47127;47.516;8.596;2024-02-23T04:45:01;6.60;99.90
61253;DHT22;47127;47.516;8.596;2024-02-23T04:47:27;6.50;99.90
61253;DHT22;47127;47.516;8.596;2024-02-23T04:49:52;6.50;99.90
61253;DHT22;47127;47.516;8.596;2024-02-23T04:52:18;6.50;99.90
61253;DHT22;47127;47.516;8.596;2024-02-23T04:54:44;6.60;99.90
61253;DHT22;47127;47.516;8.596;2024-02-23T04:57:09;6.60;99.90
61253;DHT22;47127;47.516;8.596;2024-02-23T04:59:35;6.50;99.90
61253;DHT22;47127;47.516;8.596;2024-02-23T05:02:00;6.50;99.90
61253;DHT22;47127;47.516;8.596;2024-02-23T05:04:26;6.50;99.90
61253;DHT22;47127;47.516;8.596;2024-02-23T05:06:54;6.50;99.90
61253;DHT22;47127;47.516;8.596;2024-02-23T05:09:20;6.40;99.90
61253;DHT22;47127;47.516;8.596;2024-02-23T05:11:46;6.40;99.90
61253;DHT22;47127;47.516;8.596;2024-02-23T05:14:12;6.30;99.90
61253;DHT22;47127;47.516;8.596;2024-02-23T05:16:38;6.30;99.90
61253;DHT22;47127;47.516;8.596;2024-02-23T05:19:04;6.30;99.90
61253;DHT22;47127;47.516;8.596;2024-02-23T05:21:29;6.30;99.90
61253;DHT22;47127;47.516;8.596;2024-02-23T05:23:55;6.30;99.90
61253;DHT22;47127;47.516;8.596;2024-02-23T05:26:20;6.20;99.90
61253;DHT22;47127;47.516;8.596;2024-02-23T05:28:46;6.20;99.90
61253;DHT22;47127;47.516;8.596;2024-02-23T05:31:13;6.20;99.90
61253;DHT22;47127;47.516;8.596;2024-02-23T05:33:38;6.20;99.90
61253;DHT22;47127;47.516;8.596;2024-02-23T05:36:06;6.10;99.90
61253;DHT22;47127;47.516;8.596;2024-02-23T05:38:32;6.20;99.90
61253;DHT22;47127;47.516;8.596;2024-02-23T05:40:57;6.20;99.90
61253;DHT22;47127;47.516;8.596;2024-02-23T05:43:23;6.20;99.90
61253;DHT22;47127;47.516;8.596;2024-02-23T05:45:50;6.20;99.90
61253;DHT22;47127;47.516;8.596;2024-02-23T05:48:15;6.20;99.90
61253;DHT22;47127;47.516;8.596;2024-02-23T05:50:41;6.10;99.90
61253;DHT22;47127;47.516;8.596;2024-02-23T05:53:06;6.10;99.90
61253;DHT22;47127;47.516;8.596;2024-02-23T05:55:33;6.10;99.90
61253;DHT22;47127;47.516;8.596;2024-02-23T05:57:59;6.10;99.90
61253;DHT22;47127;47.516;8.596;2024-02-23T06:00:24;6.10;99.90
61253;DHT22;47127;47.516;8.596;2024-02-23T06:02:50;6.00;99.90
61253;DHT22;47127;47.516;8.596;2024-02-23T06:05:16;6.00;99.90
61253;DHT22;47127;47.516;8.596;2024-02-23T06:07:41;6.00;99.90
61253;DHT22;47127;47.516;8.596;2024-02-23T06:10:07;6.00;99.90
61253;DHT22;47127;47.516;8.596;2024-02-23T06:12:33;6.00;99.90
61253;DHT22;47127;47.516;8.596;2024-02-23T06:14:58;5.90;99.90
61253;DHT22;47127;47.516;8.596;2024-02-23T06:17:24;6.00;99.90
61253;DHT22;47127;47.516;8.596;2024-02-23T06:19:50;6.00;99.90
61253;DHT22;47127;47.516;8.596;2024-02-23T06:22:18;6.00;99.90
61253;DHT22;47127;47.516;8.596;2024-02-23T06:24:49;6.10;99.90
61253;DHT22;47127;47.516;8.596;2024-02-23T06:27:15;6.00;99.90
61253;DHT22;47127;47.516;8.596;2024-02-23T06:29:40;6.10;99.90
61253;DHT22;47127;47.516;8.596;2024-02-23T06:32:06;6.10;99.90
61253;DHT22;47127;47.516;8.596;2024-02-23T06:34:32;6.10;99.90
61253;DHT22;47127;47.516;8.596;2024-02-23T06:36:57;6.10;99.90
61253;DHT22;47127;47.516;8.596;2024-02-23T06:39:23;6.00;99.90
61253;DHT22;47127;47.516;8.596;2024-02-23T06:41:49;6.10;99.90
61253;DHT22;47127;47.516;8.596;2024-02-23T06:44:14;6.20;99.90
61253;DHT22;47127;47.516;8.596;2024-02-23T06:46:40;6.30;99.90
61253;DHT22;47127;47.516;8.596;2024-02-23T06:49:07;6.10;99.90
61253;DHT22;47127;47.516;8.596;2024-02-23T06:51:32;6.20;99.90
61253;DHT22;47127;47.516;8.596;2024-02-23T06:54:01;6.20;99.90
61253;DHT22;47127;47.516;8.596;2024-02-23T06:56:26;6.30;99.90
61253;DHT22;47127;47.516;8.596;2024-02-23T06:58:54;6.30;99.90
61253;DHT22;47127;47.516;8.596;2024-02-23T07:01:20;6.30;99.90
61253;DHT22;47127;47.516;8.596;2024-02-23T07:03:48;6.20;99.90
61253;DHT22;47127;47.516;8.596;2024-02-23T07:06:17;6.00;99.90
61253;DHT22;47127;47.516;8.596;2024-02-23T07:08:44;5.80;99.90
61253;DHT22;47127;47.516;8.596;2024-02-23T07:11:12;5.80;99.90
61253;DHT22;47127;47.516;8.596;2024-02-23T07:13:37;5.80;99.90
61253;DHT22;47127;47.516;8.596;2024-02-23T07:16:03;5.80;99.90
61253;DHT22;47127;47.516;8.596;2024-02-23T07:18:29;5.80;99.90
61253;DHT22;47127;47.516;8.596;2024-02-23T07:20:55;5.80;99.90
61253;DHT22;47127;47.516;8.596;2024-02-23T07:23:20;5.90;99.90
61253;DHT22;47127;47.516;8.596;2024-02-23T07:25:48;5.90;99.90
61253;DHT22;47127;47.516;8.596;2024-02-23T07:28:17;5.90;99.90
61253;DHT22;47127;47.516;8.596;2024-02-23T07:30:45;5.80;99.90
61253;DHT22;47127;47.516;8.596;2024-02-23T07:33:12;5.90;99.90
61253;DHT22;47127;47.516;8.596;2024-02-23T07:35:37;5.90;99.90
61253;DHT22;47127;47.516;8.596;2024-02-23T07:38:03;5.90;99.90
61253;DHT22;47127;47.516;8.596;2024-02-23T07:40:29;5.90;99.90
61253;DHT22;47127;47.516;8.596;2024-02-23T07:42:57;6.00;99.90
61253;DHT22;47127;47.516;8.596;2024-02-23T07:45:22;5.90;99.90
61253;DHT22;47127;47.516;8.596;2024-02-23T07:47:48;5.90;99.90
61253;DHT22;47127;47.516;8.596;2024-02-23T07:50:13;5.90;99.90
61253;DHT22;47127;47.516;8.596;2024-02-23T07:52:39;5.80;99.90
61253;DHT22;47127;47.516;8.596;2024-02-23T07:55:07;5.90;99.90
61253;DHT22;47127;47.516;8.596;2024-02-23T07:57:33;6.00;99.90
61253;DHT22;47127;47.516;8.596;2024-02-23T08:00:00;6.10;99.90
61253;DHT22;47127;47.516;8.596;2024-02-23T08:02:25;6.10;99.90
61253;DHT22;47127;47.516;8.596;2024-02-23T08:04:51;6.20;99.90
61253;DHT22;47127;47.516;8.596;2024-02-23T08:07:17;6.20;99.90
61253;DHT22;47127;47.516;8.596;2024-02-23T08:09:43;6.20;99.90
61253;DHT22;47127;47.516;8.596;2024-02-23T08:12:09;6.10;99.90
61253;DHT22;47127;47.516;8.596;2024-02-23T08:14:39;6.10;99.90
61253;DHT22;47127;47.516;8.596;2024-02-23T08:17:05;6.30;99.90
61253;DHT22;47127;47.516;8.596;2024-02-23T08:19:30;6.30;99.90
61253;DHT22;47127;47.516;8.596;2024-02-23T08:21:56;6.10;99.90
61253;DHT22;47127;47.516;8.596;2024-02-23T08:24:22;6.20;99.90
61253;DHT22;47127;47.516;8.596;2024-02-23T08:26:48;6.20;99.90
61253;DHT22;47127;47.516;8.596;2024-02-23T08:29:13;6.20;99.90
61253;DHT22;47127;47.516;8.596;2024-02-23T08:31:39;6.20;99.90
61253;DHT22;47127;47.516;8.596;2024-02-23T08:34:04;6.20;99.90
61253;DHT22;47127;47.516;8.596;2024-02-23T08:36:30;6.30;99.90
61253;DHT22;47127;47.516;8.596;2024-02-23T08:38:55;6.30;99.90
61253;DHT22;47127;47.516;8.596;2024-02-23T08:41:21;6.30;99.90
61253;DHT22;47127;47.516;8.596;2024-02-23T08:43:46;6.40;99.90
61253;DHT22;47127;47.516;8.596;2024-02-23T08:46:12;6.40;99.90
61253;DHT22;47127;47.516;8.596;2024-02-23T08:48:38;6.40;99.90
61253;DHT22;47127;47.516;8.596;2024-02-23T08:51:05;6.40;99.90
61253;DHT22;47127;47.516;8.596;2024-02-23T08:53:30;6.50;99.90
61253;DHT22;47127;47.516;8.596;2024-02-23T08:55:57;6.50;99.90
61253;DHT22;47127;47.516;8.596;2024-02-23T08:58:26;6.50;99.90
61253;DHT22;47127;47.516;8.596;2024-02-23T09:00:52;6.30;99.90
61253;DHT22;47127;47.516;8.596;2024-02-23T09:03:18;6.70;99.90
61253;DHT22;47127;47.516;8.596;2024-02-23T09:05:43;6.70;99.90
61253;DHT22;47127;47.516;8.596;2024-02-23T09:22:28;6.90;99.90
61253;DHT22;47127;47.516;8.596;2024-02-23T09:24:54;6.90;99.90
61253;DHT22;47127;47.516;8.596;2024-02-23T09:27:21;7.00;99.90
61253;DHT22;47127;47.516;8.596;2024-02-23T09:29:47;6.90;99.90
61253;DHT22;47127;47.516;8.596;2024-02-23T09:32:12;6.80;99.90
61253;DHT22;47127;47.516;8.596;2024-02-23T09:34:38;6.70;99.90
61253;DHT22;47127;47.516;8.596;2024-02-23T09:37:04;6.70;99.90
61253;DHT22;47127;47.516;8.596;2024-02-23T09:39:29;6.80;99.90
61253;DHT22;47127;47.516;8.596;2024-02-23T09:41:56;6.90;99.90
61253;DHT22;47127;47.516;8.596;2024-02-23T09:44:32;6.90;99.90
61253;DHT22;47127;47.516;8.596;2024-02-23T09:47:01;7.00;99.90
61253;DHT22;47127;47.516;8.596;2024-02-23T09:49:40;7.00;99.90
61253;DHT22;47127;47.516;8.596;2024-02-23T09:52:09;7.20;99.90
61253;DHT22;47127;47.516;8.596;2024-02-23T09:54:37;7.20;99.90
61253;DHT22;47127;47.516;8.596;2024-02-23T09:57:06;7.20;99.90
61253;DHT22;47127;47.516;8.596;2024-02-23T09:59:33;7.20;99.90
61253;DHT22;47127;47.516;8.596;2024-02-23T10:01:59;7.30;99.90
61253;DHT22;47127;47.516;8.596;2024-02-23T10:04:27;7.40;99.90
61253;DHT22;47127;47.516;8.596;2024-02-23T10:06:55;7.30;99.90
61253;DHT22;47127;47.516;8.596;2024-02-23T10:09:20;7.30;99.90
61253;DHT22;47127;47.516;8.596;2024-02-23T10:11:54;7.30;99.90
61253;DHT22;47127;47.516;8.596;2024-02-23T10:14:20;7.40;99.90
61253;DHT22;47127;47.516;8.596;2024-02-23T10:16:46;7.40;99.90
61253;DHT22;47127;47.516;8.596;2024-02-23T10:19:12;7.50;99.90
61253;DHT22;47127;47.516;8.596;2024-02-23T10:21:37;7.50;99.90
61253;DHT22;47127;47.516;8.596;2024-02-23T10:24:06;7.50;99.90
61253;DHT22;47127;47.516;8.596;2024-02-23T10:26:32;7.50;99.90
61253;DHT22;47127;47.516;8.596;2024-02-23T10:28:57;7.60;99.90
61253;DHT22;47127;47.516;8.596;2024-02-23T10:31:24;7.60;99.90
61253;DHT22;47127;47.516;8.596;2024-02-23T10:33:50;7.60;99.90
61253;DHT22;47127;47.516;8.596;2024-02-23T10:36:18;7.70;99.90
61253;DHT22;47127;47.516;8.596;2024-02-23T10:38:45;7.70;99.90
61253;DHT22;47127;47.516;8.596;2024-02-23T10:41:13;7.70;99.90
61253;DHT22;47127;47.516;8.596;2024-02-23T10:43:46;7.70;99.90
61253;DHT22;47127;47.516;8.596;2024-02-23T10:46:12;7.70;99.90
61253;DHT22;47127;47.516;8.596;2024-02-23T10:48:41;7.60;99.90
61253;DHT22;47127;47.516;8.596;2024-02-23T10:51:07;7.60;99.90
61253;DHT22;47127;47.516;8.596;2024-02-23T10:53:34;7.60;99.90
61253;DHT22;47127;47.516;8.596;2024-02-23T10:56:00;7.50;99.90
61253;DHT22;47127;47.516;8.596;2024-02-23T10:58:26;7.50;99.90
61253;DHT22;47127;47.516;8.596;2024-02-23T11:00:53;7.40;99.90
61253;DHT22;47127;47.516;8.596;2024-02-23T11:03:30;7.30;99.90
61253;DHT22;47127;47.516;8.596;2024-02-23T11:06:00;7.40;99.90
61253;DHT22;47127;47.516;8.596;2024-02-23T11:08:35;7.50;99.90
61253;DHT22;47127;47.516;8.596;2024-02-23T11:11:10;7.60;99.90
61253;DHT22;47127;47.516;8.596;2024-02-23T11:13:39;7.70;99.90
61253;DHT22;47127;47.516;8.596;2024-02-23T11:16:08;7.90;99.90
61253;DHT22;47127;47.516;8.596;2024-02-23T11:18:39;7.90;99.90
61253;DHT22;47127;47.516;8.596;2024-02-23T11:21:09;8.00;99.90
61253;DHT22;47127;47.516;8.596;2024-02-23T11:23:42;8.20;99.90
61253;DHT22;47127;47.516;8.596;2024-02-23T11:26:12;8.40;99.90
61253;DHT22;47127;47.516;8.596;2024-02-23T11:28:47;8.40;99.90
61253;DHT22;47127;47.516;8.596;2024-02-23T11:31:18;8.60;99.90
61253;DHT22;47127;47.516;8.596;2024-02-23T11:33:51;8.80;99.90
61253;DHT22;47127;47.516;8.596;2024-02-23T11:36:28;8.80;99.90
61253;DHT22;47127;47.516;8.596;2024-02-23T11:38:56;8.80;99.90
61253;DHT22;47127;47.516;8.596;2024-02-23T11:41:23;9.00;99.90
61253;DHT22;47127;47.516;8.596;2024-02-23T11:43:49;8.90;99.90
61253;DHT22;47127;47.516;8.596;2024-02-23T11:46:16;9.20;99.90
61253;DHT22;47127;47.516;8.596;2024-02-23T11:48:44;9.40;99.90
61253;DHT22;47127;47.516;8.596;2024-02-23T11:51:10;9.80;99.90
61253;DHT22;47127;47.516;8.596;2024-02-23T11:53:40;9.90;99.90
61253;DHT22;47127;47.516;8.596;2024-02-23T11:56:06;10.10;99.90
61253;DHT22;47127;47.516;8.596;2024-02-23T11:58:34;10.20;99.10
61253;DHT22;47127;47.516;8.596;2024-02-23T12:01:00;10.00;99.70
61253;DHT22;47127;47.516;8.596;2024-02-23T12:03:31;10.20;99.60
61253;DHT22;47127;47.516;8.596;2024-02-23T12:05:57;10.00;99.00
61253;DHT22;47127;47.516;8.596;2024-02-23T12:08:28;9.90;99.10
61253;DHT22;47127;47.516;8.596;2024-02-23T12:10:55;9.80;98.60
61253;DHT22;47127;47.516;8.596;2024-02-23T12:13:21;9.70;99.60
61253;DHT22;47127;47.516;8.596;2024-02-23T12:15:47;9.50;98.90
61253;DHT22;47127;47.516;8.596;2024-02-23T12:18:13;9.50;98.90
61253;DHT22;47127;47.516;8.596;2024-02-23T12:20:40;9.60;99.00
61253;DHT22;47127;47.516;8.596;2024-02-23T12:23:05;9.70;98.40
61253;DHT22;47127;47.516;8.596;2024-02-23T12:25:33;9.70;98.50
61253;DHT22;47127;47.516;8.596;2024-02-23T12:27:59;9.50;98.20
61253;DHT22;47127;47.516;8.596;2024-02-23T12:30:26;9.40;97.90
61253;DHT22;47127;47.516;8.596;2024-02-23T12:33:03;9.50;98.10
61253;DHT22;47127;47.516;8.596;2024-02-23T12:35:29;9.40;97.90
61253;DHT22;47127;47.516;8.596;2024-02-23T12:37:54;9.60;97.40
61253;DHT22;47127;47.516;8.596;2024-02-23T12:40:20;9.70;97.50
61253;DHT22;47127;47.516;8.596;2024-02-23T12:42:45;9.50;98.20
61253;DHT22;47127;47.516;8.596;2024-02-23T12:45:14;9.30;98.30
61253;DHT22;47127;47.516;8.596;2024-02-23T12:47:40;9.30;98.60
61253;DHT22;47127;47.516;8.596;2024-02-23T12:50:06;9.40;99.90
61253;DHT22;47127;47.516;8.596;2024-02-23T12:52:34;9.50;99.40
61253;DHT22;47127;47.516;8.596;2024-02-23T12:54:59;9.40;99.80
61253;DHT22;47127;47.516;8.596;2024-02-23T12:57:26;9.30;99.30
61253;DHT22;47127;47.516;8.596;2024-02-23T12:59:52;9.20;99.80
61253;DHT22;47127;47.516;8.596;2024-02-23T13:02:17;9.20;99.80
61253;DHT22;47127;47.516;8.596;2024-02-23T13:04:43;9.20;99.60
61253;DHT22;47127;47.516;8.596;2024-02-23T13:07:14;9.20;99.80
61253;DHT22;47127;47.516;8.596;2024-02-23T13:09:40;9.20;99.30
61253;DHT22;47127;47.516;8.596;2024-02-23T13:12:06;9.40;98.60
61253;DHT22;47127;47.516;8.596;2024-02-23T13:14:32;9.50;98.20
61253;DHT22;47127;47.516;8.596;2024-02-23T13:16:57;9.60;97.70
61253;DHT22;47127;47.516;8.596;2024-02-23T13:19:23;9.90;97.90
61253;DHT22;47127;47.516;8.596;2024-02-23T13:21:48;10.10;98.00
61253;DHT22;47127;47.516;8.596;2024-02-23T13:24:15;10.10;97.60
61253;DHT22;47127;47.516;8.596;2024-02-23T13:26:40;10.10;97.70
61253;DHT22;47127;47.516;8.596;2024-02-23T13:29:06;10.10;97.90
61253;DHT22;47127;47.516;8.596;2024-02-23T13:31:32;10.10;97.70
61253;DHT22;47127;47.516;8.596;2024-02-23T13:33:57;10.10;97.90
61253;DHT22;47127;47.516;8.596;2024-02-23T13:36:25;10.20;97.80
61253;DHT22;47127;47.516;8.596;2024-02-23T13:38:50;10.10;97.90
61253;DHT22;47127;47.516;8.596;2024-02-23T13:41:17;10.10;98.50
61253;DHT22;47127;47.516;8.596;2024-02-23T13:43:43;10.20;98.10
61253;DHT22;47127;47.516;8.596;2024-02-23T13:46:08;10.30;98.50
61253;DHT22;47127;47.516;8.596;2024-02-23T13:48:35;10.60;97.50
61253;DHT22;47127;47.516;8.596;2024-02-23T13:51:00;11.10;97.00
61253;DHT22;47127;47.516;8.596;2024-02-23T13:53:29;11.60;96.30
61253;DHT22;47127;47.516;8.596;2024-02-23T13:55:55;12.00;96.10
61253;DHT22;47127;47.516;8.596;2024-02-23T13:58:20;12.20;95.50
61253;DHT22;47127;47.516;8.596;2024-02-23T14:00:46;12.20;94.00
61253;DHT22;47127;47.516;8.596;2024-02-23T14:03:16;11.70;94.10
61253;DHT22;47127;47.516;8.596;2024-02-23T14:05:43;11.60;95.20
61253;DHT22;47127;47.516;8.596;2024-02-23T14:08:10;11.40;95.50
61253;DHT22;47127;47.516;8.596;2024-02-23T14:10:36;11.50;95.70
61253;DHT22;47127;47.516;8.596;2024-02-23T14:13:01;11.40;94.80
61253;DHT22;47127;47.516;8.596;2024-02-23T14:15:27;11.20;94.80
61253;DHT22;47127;47.516;8.596;2024-02-23T14:17:52;11.10;94.80
61253;DHT22;47127;47.516;8.596;2024-02-23T14:20:18;10.80;96.20
61253;DHT22;47127;47.516;8.596;2024-02-23T14:22:44;11.00;96.20
61253;DHT22;47127;47.516;8.596;2024-02-23T14:25:09;11.00;96.70
61253;DHT22;47127;47.516;8.596;2024-02-23T14:27:35;10.80;95.60
61253;DHT22;47127;47.516;8.596;2024-02-23T14:30:01;10.40;96.10
61253;DHT22;47127;47.516;8.596;2024-02-23T14:32:28;10.20;97.50
61253;DHT22;47127;47.516;8.596;2024-02-23T14:34:54;9.90;96.70
61253;DHT22;47127;47.516;8.596;2024-02-23T14:37:20;9.80;97.90
61253;DHT22;47127;47.516;8.596;2024-02-23T14:39:46;9.60;97.30
61253;DHT22;47127;47.516;8.596;2024-02-23T14:42:11;9.50;97.70
61253;DHT22;47127;47.516;8.596;2024-02-23T14:44:37;9.40;98.50
61253;DHT22;47127;47.516;8.596;2024-02-23T14:47:03;9.40;98.30
61253;DHT22;47127;47.516;8.596;2024-02-23T14:49:31;9.40;98.70
61253;DHT22;47127;47.516;8.596;2024-02-23T14:51:56;9.40;98.80
61253;DHT22;47127;47.516;8.596;2024-02-23T14:54:22;9.40;99.00
61253;DHT22;47127;47.516;8.596;2024-02-23T14:56:47;9.50;98.90
61253;DHT22;47127;47.516;8.596;2024-02-23T14:59:13;9.50;99.90
61253;DHT22;47127;47.516;8.596;2024-02-23T15:01:39;9.50;99.80
61253;DHT22;47127;47.516;8.596;2024-02-23T15:04:07;9.50;99.40
61253;DHT22;47127;47.516;8.596;2024-02-23T15:06:34;9.50;99.90
61253;DHT22;47127;47.516;8.596;2024-02-23T15:09:00;9.60;99.10
61253;DHT22;47127;47.516;8.596;2024-02-23T15:11:28;9.70;98.50
61253;DHT22;47127;47.516;8.596;2024-02-23T15:13:54;9.70;98.30
61253;DHT22;47127;47.516;8.596;2024-02-23T15:16:29;9.70;98.80
61253;DHT22;47127;47.516;8.596;2024-02-23T15:18:56;9.80;98.10
61253;DHT22;47127;47.516;8.596;2024-02-23T15:21:22;9.70;98.30
61253;DHT22;47127;47.516;8.596;2024-02-23T15:23:47;9.80;98.50
61253;DHT22;47127;47.516;8.596;2024-02-23T15:26:15;9.80;99.10
61253;DHT22;47127;47.516;8.596;2024-02-23T15:28:41;9.70;99.60
61253;DHT22;47127;47.516;8.596;2024-02-23T15:31:06;9.60;99.70
61253;DHT22;47127;47.516;8.596;2024-02-23T15:33:32;9.50;99.90
61253;DHT22;47127;47.516;8.596;2024-02-23T15:35:58;9.30;99.40
61253;DHT22;47127;47.516;8.596;2024-02-23T15:38:41;9.30;99.90
61253;DHT22;47127;47.516;8.596;2024-02-23T15:41:09;9.30;99.90
61253;DHT22;47127;47.516;8.596;2024-02-23T15:43:35;9.30;99.90
61253;DHT22;47127;47.516;8.596;2024-02-23T15:46:01;9.20;99.90
61253;DHT22;47127;47.516;8.596;2024-02-23T15:48:26;9.30;99.90
61253;DHT22;47127;47.516;8.596;2024-02-23T15:50:52;9.30;99.90
61253;DHT22;47127;47.516;8.596;2024-02-23T15:53:18;9.40;99.90